Time;durP1;ratioP1;P1;durP2;ratioP2;P2;SDS_P1;SDS_P2;PMS_P1;PMS_P2;Temp;Humidity;BMP_temperature;BMP_pressure;BME280_temperature;BME280_humidity;BME280_pressure;Samples;Min_cycle;Max_cycle;Signal;HPM_P1;HPM_P2
2023/11/23 00:01:37;;;;;;;33.25;17.45;;;;;;;2.24;100.00;101171.56;5071892;28;20135;-42
2023/11/23 00:04:06;;;;;;;29.63;16.90;;;;;;;2.34;100.00;101183.75;5071433;28;20386;-41
2023/11/23 00:06:34;;;;;;;31.88;17.50;;;;;;;2.13;100.00;101192.75;5071777;28;20202;-42
2023/11/23 00:09:05;;;;;;;32.33;16.70;;;;;;;2.27;100.00;101197.84;5071782;28;20048;-41
2023/11/23 00:11:34;;;;;;;33.92;18.00;;;;;;;2.08;100.00;101199.81;5071721;28;20040;-41
2023/11/23 00:14:02;;;;;;;32.25;17.77;;;;;;;2.00;100.00;101185.84;5071966;28;20052;-41
2023/11/23 00:16:31;;;;;;;31.88;18.05;;;;;;;1.98;100.00;101177.97;5071660;28;20123;-42
2023/11/23 00:19:00;;;;;;;33.78;18.80;;;;;;;2.01;100.00;101179.69;5071708;28;20052;-42
2023/11/23 00:21:28;;;;;;;34.35;18.25;;;;;;;2.18;100.00;101161.09;5071400;28;20052;-41
2023/11/23 00:23:57;;;;;;;35.22;18.55;;;;;;;2.29;100.00;101161.84;5071146;28;20056;-42
2023/11/23 00:26:25;;;;;;;33.08;18.67;;;;;;;2.34;100.00;101164.44;5071849;28;20055;-41
2023/11/23 00:28:54;;;;;;;34.78;18.60;;;;;;;2.43;100.00;101166.97;5071488;28;20048;-41
2023/11/23 00:31:23;;;;;;;33.65;17.02;;;;;;;2.33;100.00;101166.19;5070229;28;20386;-40
2023/11/23 00:33:51;;;;;;;33.85;17.90;;;;;;;2.08;100.00;101165.59;5086189;28;20446;-42
2023/11/23 00:36:21;;;;;;;33.17;17.85;;;;;;;1.90;100.00;101168.41;5071006;28;20052;-42
2023/11/23 00:38:50;;;;;;;31.77;17.88;;;;;;;2.10;100.00;101171.72;5078241;28;20402;-43
2023/11/23 00:41:18;;;;;;;34.28;18.40;;;;;;;2.31;100.00;101167.97;5070876;28;20102;-43
2023/11/23 00:43:46;;;;;;;32.78;18.63;;;;;;;2.25;100.00;101168.03;5071053;28;20414;-44
2023/11/23 00:46:15;;;;;;;30.67;17.75;;;;;;;2.23;100.00;101164.56;5071312;28;20101;-42
2023/11/23 00:48:44;;;;;;;31.67;16.73;;;;;;;2.36;100.00;101155.63;5071074;28;20048;-42
2023/11/23 00:51:14;;;;;;;32.80;17.75;;;;;;;2.49;100.00;101156.34;5071261;28;20049;-41
2023/11/23 00:53:46;;;;;;;32.85;17.70;;;;;;;2.53;100.00;101152.78;5071227;28;20147;-42
2023/11/23 00:56:16;;;;;;;32.42;17.17;;;;;;;2.52;100.00;101162.44;5071012;28;20049;-44
2023/11/23 00:58:45;;;;;;;30.92;17.67;;;;;;;2.40;100.00;101159.06;5074631;28;20598;-41
2023/11/23 01:01:15;;;;;;;32.88;17.75;;;;;;;2.53;100.00;101158.06;5075287;28;20491;-41
2023/11/23 01:03:44;;;;;;;34.75;18.02;;;;;;;2.58;100.00;101167.63;5074783;28;20055;-41
2023/11/23 01:06:12;;;;;;;32.53;17.80;;;;;;;2.52;100.00;101164.22;5075117;28;20048;-42
2023/11/23 01:08:45;;;;;;;29.92;16.70;;;;;;;2.46;100.00;101178.31;5074828;28;20053;-42
2023/11/23 01:11:14;;;;;;;31.80;16.77;;;;;;;2.53;100.00;101165.97;5074880;28;20056;-41
2023/11/23 01:13:43;;;;;;;31.05;17.20;;;;;;;2.56;100.00;101164.13;5074672;28;20688;-42
2023/11/23 01:16:11;;;;;;;31.90;17.50;;;;;;;2.47;100.00;101158.13;5074831;28;20048;-42
2023/11/23 01:18:42;;;;;;;31.92;16.38;;;;;;;2.52;100.00;101162.44;5074863;28;20052;-41
2023/11/23 01:21:10;;;;;;;33.88;17.67;;;;;;;2.37;100.00;101151.22;5074518;28;20041;-44
2023/11/23 01:23:39;;;;;;;30.45;17.02;;;;;;;2.29;100.00;101156.56;5074455;28;20136;-42
2023/11/23 01:26:08;;;;;;;32.38;17.02;;;;;;;2.33;100.00;101167.97;5074275;28;20547;-42
2023/11/23 01:28:37;;;;;;;31.60;17.10;;;;;;;2.28;100.00;101171.50;5074631;28;20088;-42
2023/11/23 01:31:05;;;;;;;29.67;16.48;;;;;;;2.11;100.00;101180.47;5074335;28;20044;-41
2023/11/23 01:33:33;;;;;;;29.73;17.17;;;;;;;2.13;100.00;101176.97;5074686;28;20048;-41
2023/11/23 01:36:02;;;;;;;32.88;17.20;;;;;;;2.26;100.00;101180.31;5074485;28;20472;-44
2023/11/23 01:38:30;;;;;;;32.65;17.48;;;;;;;2.15;100.00;101169.91;5074415;28;20135;-41
2023/11/23 01:40:58;;;;;;;32.03;17.33;;;;;;;2.27;100.00;101164.50;5074432;28;20098;-43
2023/11/23 01:43:30;;;;;;;32.63;17.75;;;;;;;1.98;100.00;101175.34;5074096;28;20106;-42
2023/11/23 01:45:59;;;;;;;30.77;17.60;;;;;;;2.04;100.00;101169.16;5074249;28;20059;-41
2023/11/23 01:48:30;;;;;;;33.58;17.95;;;;;;;2.00;100.00;101155.16;5074193;28;20277;-43
2023/11/23 01:51:00;;;;;;;35.45;18.70;;;;;;;2.22;100.00;101152.25;5074071;28;20359;-42
2023/11/23 01:53:32;;;;;;;33.70;17.38;;;;;;;2.27;100.00;101155.72;5074363;28;20436;-42
2023/11/23 01:56:01;;;;;;;36.78;18.52;;;;;;;2.08;100.00;101155.06;5073922;28;20460;-42
2023/11/23 01:58:31;;;;;;;34.13;18.15;;;;;;;1.75;100.00;101155.44;5073953;28;20041;-41
2023/11/23 02:00:59;;;;;;;33.85;17.83;;;;;;;1.62;100.00;101155.53;5074102;28;20391;-42
2023/11/23 02:03:28;;;;;;;34.80;17.85;;;;;;;1.00;100.00;101154.28;5074112;28;20064;-42
2023/11/23 02:05:56;;;;;;;32.83;16.83;;;;;;;1.13;100.00;101144.53;5073952;28;20048;-42
2023/11/23 02:08:25;;;;;;;36.00;18.90;;;;;;;1.17;100.00;101142.78;5073102;28;20056;-43
2023/11/23 02:10:54;;;;;;;33.40;17.55;;;;;;;1.07;100.00;101140.22;5073712;28;20064;-42
2023/11/23 02:13:23;;;;;;;31.85;17.45;;;;;;;1.10;100.00;101129.69;5073731;28;20048;-42
2023/11/23 02:15:52;;;;;;;32.70;17.05;;;;;;;1.18;100.00;101128.75;5073726;28;20508;-41
2023/11/23 02:18:21;;;;;;;33.72;17.15;;;;;;;1.17;100.00;101119.13;5074064;28;20214;-43
2023/11/23 02:20:49;;;;;;;32.20;17.08;;;;;;;1.14;100.00;101126.13;5073740;28;20076;-42
2023/11/23 02:23:20;;;;;;;32.88;17.33;;;;;;;1.32;100.00;101130.38;5073583;28;20050;-42
2023/11/23 02:25:50;;;;;;;29.65;16.70;;;;;;;1.40;100.00;101122.44;5073685;28;20060;-42
2023/11/23 02:28:19;;;;;;;33.10;16.77;;;;;;;1.46;100.00;101116.25;5074102;28;20234;-42
2023/11/23 02:30:47;;;;;;;34.13;16.80;;;;;;;1.37;100.00;101118.09;5074395;28;20040;-42
2023/11/23 02:33:15;;;;;;;31.85;15.70;;;;;;;1.65;100.00;101118.69;5073768;28;20095;-42
2023/11/23 02:35:44;;;;;;;29.45;15.98;;;;;;;1.82;100.00;101121.13;5073481;28;20074;-42
2023/11/23 02:38:12;;;;;;;30.25;16.17;;;;;;;1.67;100.00;101116.06;5073716;28;20056;-41
2023/11/23 02:40:40;;;;;;;29.73;15.80;;;;;;;1.56;100.00;101123.19;5073092;28;20044;-42
2023/11/23 02:43:10;;;;;;;28.50;15.52;;;;;;;1.91;100.00;101120.16;5073189;28;20085;-43
2023/11/23 02:45:39;;;;;;;29.15;15.32;;;;;;;1.85;100.00;101115.00;5072979;28;20517;-41
2023/11/23 02:48:07;;;;;;;32.20;16.08;;;;;;;1.90;100.00;101108.78;5072726;28;20048;-42
2023/11/23 02:50:35;;;;;;;30.05;16.27;;;;;;;2.11;100.00;101126.06;5073190;28;20045;-43
2023/11/23 02:53:04;;;;;;;29.42;15.93;;;;;;;2.20;100.00;101119.84;5073051;28;20049;-42
2023/11/23 02:55:33;;;;;;;29.13;15.40;;;;;;;2.32;100.00;101110.91;5072913;28;20076;-40
2023/11/23 02:58:01;;;;;;;27.85;14.50;;;;;;;2.38;100.00;101116.09;5072782;28;20059;-42
2023/11/23 03:00:33;;;;;;;28.85;15.25;;;;;;;2.39;100.00;101102.03;5072615;28;20047;-41
2023/11/23 03:03:01;;;;;;;29.88;15.85;;;;;;;2.29;100.00;101099.53;5072588;28;20063;-42
2023/11/23 03:05:29;;;;;;;27.85;14.93;;;;;;;2.03;100.00;101085.84;5072626;28;20050;-43
2023/11/23 03:07:58;;;;;;;26.42;14.60;;;;;;;1.98;100.00;101075.34;5072550;28;20166;-41
2023/11/23 03:10:27;;;;;;;28.75;14.48;;;;;;;1.91;100.00;101078.06;5072654;28;20045;-41
2023/11/23 03:21:31;;;;;;;28.23;14.40;;;;;;;2.17;100.00;101085.66;5072439;28;20564;-42
2023/11/23 03:24:01;;;;;;;25.05;14.05;;;;;;;1.90;100.00;101082.47;5071739;28;20136;-41
2023/11/23 03:26:29;;;;;;;28.63;14.63;;;;;;;2.15;100.00;101079.56;5072473;28;20058;-42
2023/11/23 03:28:57;;;;;;;28.17;15.07;;;;;;;2.00;100.00;101081.47;5072068;28;20052;-41
2023/11/23 03:31:26;;;;;;;27.90;14.57;;;;;;;1.93;100.00;101074.56;5071994;28;20474;-42
2023/11/23 03:33:54;;;;;;;29.02;14.90;;;;;;;1.94;100.00;101078.06;5072286;28;20094;-41
2023/11/23 03:36:22;;;;;;;31.52;14.52;;;;;;;1.97;100.00;101078.00;5072084;28;20041;-41
2023/11/23 03:38:51;;;;;;;28.55;15.27;;;;;;;2.08;100.00;101076.13;5072121;28;20139;-40
2023/11/23 03:41:20;;;;;;;28.67;14.77;;;;;;;2.21;100.00;101061.03;5071720;28;20128;-42
2023/11/23 03:43:49;;;;;;;32.10;15.18;;;;;;;2.06;100.00;101040.19;5071784;28;20084;-44
2023/11/23 03:46:17;;;;;;;28.02;14.68;;;;;;;2.15;100.00;101048.84;5071645;28;20048;-42
2023/11/23 03:48:45;;;;;;;28.70;15.30;;;;;;;2.22;100.00;101046.97;5071621;28;20053;-42
2023/11/23 03:51:14;;;;;;;27.35;14.68;;;;;;;2.27;100.00;101051.28;5071653;28;20131;-42
2023/11/23 03:53:43;;;;;;;28.48;15.02;;;;;;;2.39;100.00;101044.13;5071545;28;20055;-41
2023/11/23 03:56:15;;;;;;;27.30;14.95;;;;;;;2.35;100.00;101048.56;5071696;28;20098;-42
2023/11/23 03:58:47;;;;;;;31.27;15.18;;;;;;;2.23;100.00;101048.75;5071458;28;20398;-42
2023/11/23 04:01:16;;;;;;;29.90;15.55;;;;;;;2.17;100.00;101052.31;5071899;28;20127;-41
2023/11/23 04:03:45;;;;;;;27.70;13.98;;;;;;;2.19;100.00;101047.88;5071249;28;20072;-41
2023/11/23 04:06:13;;;;;;;28.30;15.57;;;;;;;2.02;100.00;101052.50;5071220;28;20509;-40
2023/11/23 04:08:41;;;;;;;28.60;15.13;;;;;;;1.90;100.00;101050.88;5071466;28;20076;-42
2023/11/23 04:11:10;;;;;;;29.88;15.85;;;;;;;1.90;100.00;101050.03;5071723;28;20087;-42
2023/11/23 04:13:39;;;;;;;28.90;15.48;;;;;;;2.15;100.00;101050.59;5071636;28;20135;-41
2023/11/23 04:16:09;;;;;;;27.85;14.63;;;;;;;2.11;100.00;101044.47;5071515;28;20462;-42
2023/11/23 04:18:41;;;;;;;26.63;15.05;;;;;;;2.23;100.00;101054.88;5071545;28;20044;-41
2023/11/23 04:21:10;;;;;;;29.85;14.45;;;;;;;2.23;100.00;101070.66;5071094;28;20126;-40
2023/11/23 04:23:38;;;;;;;27.30;14.05;;;;;;;2.16;100.00;101066.38;5070995;28;20053;-41
2023/11/23 04:26:07;;;;;;;29.48;15.07;;;;;;;2.19;100.00;101061.06;5071235;28;20056;-41
2023/11/23 04:28:36;;;;;;;26.48;15.00;;;;;;;2.27;100.00;101067.09;5071018;28;20097;-42
2023/11/23 04:31:06;;;;;;;29.88;15.35;;;;;;;2.41;100.00;101068.66;5071252;28;20501;-43
2023/11/23 04:33:36;;;;;;;26.20;14.13;;;;;;;2.43;100.00;101059.00;5070903;28;20044;-41
2023/11/23 04:36:05;;;;;;;26.92;13.60;;;;;;;2.52;100.00;101061.50;5071039;28;20045;-44
2023/11/23 04:38:33;;;;;;;27.27;14.68;;;;;;;2.59;100.00;101074.53;5070936;28;20490;-40
2023/11/23 04:41:02;;;;;;;28.00;14.45;;;;;;;2.62;100.00;101075.41;5070912;28;20507;-41
2023/11/23 04:43:31;;;;;;;28.00;14.55;;;;;;;2.67;100.00;101074.44;5071122;28;20136;-41
2023/11/23 04:45:59;;;;;;;26.77;14.13;;;;;;;2.70;100.00;101076.13;5071029;28;20099;-43
2023/11/23 04:48:27;;;;;;;24.73;13.25;;;;;;;2.75;100.00;101075.19;5070771;28;20044;-41
2023/11/23 04:50:57;;;;;;;28.80;14.32;;;;;;;2.77;100.00;101073.41;5071150;28;20041;-43
2023/11/23 04:53:26;;;;;;;27.80;13.95;;;;;;;2.76;100.00;101076.94;5070856;28;20153;-42
2023/11/23 04:55:54;;;;;;;27.35;14.48;;;;;;;2.68;100.00;101078.81;5071010;28;20055;-41
2023/11/23 04:58:23;;;;;;;27.48;14.15;;;;;;;2.69;100.00;101075.28;5070945;28;20045;-41
2023/11/23 05:00:53;;;;;;;24.77;13.10;;;;;;;2.71;100.00;101073.50;5070596;28;20486;-41
2023/11/23 05:03:20;;;;;;;25.63;13.88;;;;;;;2.65;100.00;101073.59;5070661;28;20056;-41
2023/11/23 05:05:48;;;;;;;27.05;13.15;;;;;;;2.63;100.00;101077.16;5070832;28;20354;-42
2023/11/23 05:08:19;;;;;;;26.67;14.27;;;;;;;2.79;100.00;101076.88;5070396;28;20052;-42
2023/11/23 05:10:47;;;;;;;26.60;13.13;;;;;;;2.80;100.00;101081.28;5070536;28;20055;-42
2023/11/23 05:13:15;;;;;;;25.40;13.48;;;;;;;2.57;100.00;101086.00;5069594;28;20068;-41
2023/11/23 05:15:44;;;;;;;23.38;12.88;;;;;;;2.67;100.00;101082.34;5070444;28;20084;-40
2023/11/23 05:18:13;;;;;;;25.02;13.43;;;;;;;2.72;100.00;101090.19;5070493;28;20482;-41
2023/11/23 05:20:41;;;;;;;21.92;11.85;;;;;;;2.59;100.00;101094.75;5070612;28;20066;-41
2023/11/23 05:23:09;;;;;;;25.73;12.82;;;;;;;2.81;100.00;101090.06;5070712;28;20143;-44
2023/11/23 05:25:39;;;;;;;25.38;12.95;;;;;;;2.85;100.00;101097.00;5070292;28;20052;-42
2023/11/23 05:28:08;;;;;;;24.58;13.00;;;;;;;2.84;100.00;101097.91;5070480;28;20442;-42
2023/11/23 05:30:36;;;;;;;22.88;12.55;;;;;;;2.80;100.00;101105.00;5070516;28;20547;-41
2023/11/23 05:33:05;;;;;;;24.42;13.02;;;;;;;2.80;100.00;101099.72;5070357;28;20098;-42
2023/11/23 05:35:33;;;;;;;24.65;12.90;;;;;;;2.86;100.00;101088.19;5070328;28;20041;-42
2023/11/23 05:38:01;;;;;;;23.40;12.65;;;;;;;2.77;100.00;101089.22;5070542;28;20405;-41
2023/11/23 05:40:29;;;;;;;24.08;13.75;;;;;;;2.71;100.00;101083.19;5070534;28;20049;-40
2023/11/23 05:42:59;;;;;;;25.38;12.75;;;;;;;2.70;100.00;101098.13;5070640;28;20049;-41
2023/11/23 05:45:33;;;;;;;25.85;14.02;;;;;;;2.75;100.00;101098.03;5073475;28;20099;-41
2023/11/23 05:48:02;;;;;;;28.50;14.50;;;;;;;2.69;100.00;101096.34;5074170;28;20550;-41
2023/11/23 05:50:31;;;;;;;25.63;14.07;;;;;;;2.63;100.00;101090.31;5074133;28;20147;-47
2023/11/23 05:53:00;;;;;;;28.77;14.65;;;;;;;2.75;100.00;101087.50;5074170;28;20136;-41
2023/11/23 05:55:28;;;;;;;26.45;13.77;;;;;;;2.83;100.00;101094.41;5073966;28;20049;-40
2023/11/23 05:57:57;;;;;;;27.73;14.70;;;;;;;2.61;100.00;101094.75;5073880;28;20080;-41
2023/11/23 06:00:27;;;;;;;28.85;15.05;;;;;;;2.77;100.00;101096.25;5073521;28;20044;-44
2023/11/23 06:02:55;;;;;;;26.58;14.25;;;;;;;2.70;100.00;101090.22;5073577;28;20132;-40
2023/11/23 06:05:23;;;;;;;30.38;15.50;;;;;;;2.80;100.00;101086.56;5073396;28;20478;-41
2023/11/23 06:07:52;;;;;;;26.98;15.00;;;;;;;2.75;100.00;101084.88;5073329;28;20083;-42
2023/11/23 06:10:21;;;;;;;31.52;14.98;;;;;;;2.80;100.00;101093.59;5073335;28;20048;-42
2023/11/23 06:12:49;;;;;;;32.33;15.07;;;;;;;2.76;100.00;101082.19;5073364;28;20131;-42
2023/11/23 06:15:18;;;;;;;29.70;14.90;;;;;;;2.79;100.00;101089.19;5073384;28;20466;-42
2023/11/23 06:17:47;;;;;;;29.38;15.20;;;;;;;2.52;100.00;101082.56;5073582;28;20379;-41
2023/11/23 06:20:18;;;;;;;30.98;15.20;;;;;;;2.62;100.00;101083.31;5073503;28;20091;-43
2023/11/23 06:22:48;;;;;;;30.23;14.73;;;;;;;2.49;100.00;101082.59;5073170;28;20509;-42
2023/11/23 06:25:16;;;;;;;32.17;13.90;;;;;;;2.58;100.00;101082.47;5073088;28;20480;-40
2023/11/23 06:27:46;;;;;;;28.58;15.02;;;;;;;2.58;100.00;101071.94;5073350;28;20059;-42
2023/11/23 06:30:22;;;;;;;28.08;13.70;;;;;;;2.48;100.00;101079.09;5073203;28;20407;-41
2023/11/23 06:32:52;;;;;;;29.00;14.02;;;;;;;2.67;100.00;101082.34;5072691;28;20465;-41
2023/11/23 06:35:21;;;;;;;27.02;13.60;;;;;;;2.73;100.00;101087.53;5073041;28;20040;-41
2023/11/23 06:37:49;;;;;;;31.85;14.88;;;;;;;2.87;100.00;101085.53;5072772;28;20103;-40
2023/11/23 06:40:18;;;;;;;26.92;13.55;;;;;;;2.94;100.00;101080.19;5072738;28;20500;-41
2023/11/23 06:42:46;;;;;;;29.65;14.23;;;;;;;3.03;100.00;101080.03;5073121;28;20087;-41
2023/11/23 06:45:16;;;;;;;29.08;14.80;;;;;;;3.12;100.00;101074.63;5073115;28;20048;-42
2023/11/23 06:47:44;;;;;;;29.65;13.68;;;;;;;3.11;100.00;101067.59;5072917;28;20486;-40
2023/11/23 06:50:14;;;;;;;27.88;14.48;;;;;;;3.13;100.00;101071.94;5068841;28;20052;-41
2023/11/23 06:52:45;;;;;;;27.13;14.20;;;;;;;3.03;100.00;101066.84;5072330;28;20410;-42
2023/11/23 06:55:14;;;;;;;26.70;14.68;;;;;;;3.23;100.00;101051.56;5072077;28;20128;-41
2023/11/23 06:57:46;;;;;;;27.52;14.45;;;;;;;3.26;100.00;101056.78;5071663;28;20136;-41
2023/11/23 07:00:22;;;;;;;26.00;13.90;;;;;;;3.43;100.00;101043.31;5069372;28;20141;-43
2023/11/23 07:02:51;;;;;;;27.92;14.05;;;;;;;3.56;100.00;101065.03;5072183;28;20121;-41
2023/11/23 07:05:21;;;;;;;31.83;15.13;;;;;;;3.62;100.00;101054.38;5072200;28;20048;-43
2023/11/23 07:07:49;;;;;;;30.40;15.30;;;;;;;3.66;100.00;101056.06;5071855;28;20446;-41
2023/11/23 07:10:18;;;;;;;30.08;15.52;;;;;;;3.87;100.00;101055.66;5068962;28;20139;-42
2023/11/23 07:12:49;;;;;;;30.25;15.07;;;;;;;3.98;100.00;101058.94;5071541;28;20132;-45
2023/11/23 07:15:18;;;;;;;28.95;14.55;;;;;;;4.09;100.00;101056.09;5071818;28;20045;-42
2023/11/23 07:17:49;;;;;;;27.52;14.38;;;;;;;4.19;100.00;101067.31;5071634;28;20138;-43
2023/11/23 07:20:18;;;;;;;28.20;14.98;;;;;;;4.21;100.00;101065.53;5068173;28;20087;-41
2023/11/23 07:22:48;;;;;;;29.48;15.50;;;;;;;4.22;100.00;101054.91;5071875;28;20519;-45
2023/11/23 07:25:17;;;;;;;27.58;14.25;;;;;;;4.04;100.00;101060.56;5071777;28;20044;-42
2023/11/23 07:27:45;;;;;;;24.05;13.00;;;;;;;4.08;100.00;101053.50;5077890;28;20043;-41
2023/11/23 07:30:14;;;;;;;29.20;13.98;;;;;;;4.12;100.00;101050.72;5072402;28;20049;-41
2023/11/23 07:32:42;;;;;;;28.42;14.57;;;;;;;4.20;100.00;101047.94;5091390;28;20048;-41
2023/11/23 07:35:12;;;;;;;30.05;14.35;;;;;;;4.17;100.00;101059.44;5091972;28;20055;-41
2023/11/23 07:37:40;;;;;;;27.80;14.20;;;;;;;4.21;100.00;101052.31;5092195;28;20050;-41
2023/11/23 07:40:13;;;;;;;29.77;14.90;;;;;;;4.24;100.00;101054.88;5072505;28;20037;-44
2023/11/23 07:42:43;;;;;;;34.65;16.05;;;;;;;4.28;100.00;101062.72;5078544;28;20131;-43
2023/11/23 07:45:12;;;;;;;28.67;15.63;;;;;;;4.24;100.00;101057.53;5071113;28;20041;-41
2023/11/23 07:47:42;;;;;;;33.22;14.88;;;;;;;4.16;100.00;101052.44;5077025;28;20040;-41
2023/11/23 07:50:15;;;;;;;28.52;14.82;;;;;;;4.15;100.00;101061.25;5079034;28;20387;-41
2023/11/23 07:52:44;;;;;;;28.90;13.95;;;;;;;4.17;100.00;101053.28;5091291;28;20079;-41
2023/11/23 07:55:15;;;;;;;29.65;14.57;;;;;;;4.24;100.00;101060.16;5051091;28;20045;-41
2023/11/23 07:57:44;;;;;;;28.30;15.20;;;;;;;4.30;100.00;101039.78;5051087;28;20049;-41
2023/11/23 08:00:13;;;;;;;29.55;14.80;;;;;;;4.38;100.00;101039.63;5063846;28;20413;-40
2023/11/23 08:02:41;;;;;;;30.85;15.93;;;;;;;4.40;100.00;101045.72;5070767;28;20554;-42
2023/11/23 08:05:10;;;;;;;30.77;15.55;;;;;;;4.46;100.00;101045.59;5071861;28;20481;-42
2023/11/23 08:07:38;;;;;;;31.27;15.10;;;;;;;4.35;100.00;101042.34;5071642;28;20059;-42
2023/11/23 08:10:08;;;;;;;30.55;15.40;;;;;;;4.39;100.00;101028.16;5069318;28;20044;-42
2023/11/23 08:12:39;;;;;;;30.52;15.00;;;;;;;4.38;100.00;101026.41;5071317;28;20055;-40
2023/11/23 08:15:09;;;;;;;30.65;15.40;;;;;;;4.39;100.00;101022.88;5070563;28;20113;-41
2023/11/23 08:17:38;;;;;;;30.17;15.60;;;;;;;4.41;100.00;101023.69;5071187;28;20040;-41
2023/11/23 08:20:08;;;;;;;29.80;16.17;;;;;;;4.51;100.00;101035.78;5067242;28;20094;-42
2023/11/23 08:22:38;;;;;;;29.52;14.80;;;;;;;4.67;100.00;101024.88;5069552;28;20048;-41
2023/11/23 08:25:07;;;;;;;29.95;15.18;;;;;;;4.84;100.00;101022.69;5070539;28;20466;-41
2023/11/23 08:27:38;;;;;;;30.30;15.10;;;;;;;4.87;100.00;101018.19;5070451;28;20044;-41
2023/11/23 08:30:08;;;;;;;27.77;15.05;;;;;;;4.84;100.00;101015.63;5067247;28;20051;-41
2023/11/23 08:32:36;;;;;;;30.20;15.80;;;;;;;4.89;100.00;101008.44;5070627;28;20102;-41
2023/11/23 08:35:08;;;;;;;27.77;14.50;;;;;;;5.00;100.00;101012.59;5070798;28;20044;-40
2023/11/23 08:37:36;;;;;;;30.80;16.08;;;;;;;4.99;100.00;101003.78;5070535;28;20041;-41
2023/11/23 08:40:06;;;;;;;30.67;15.48;;;;;;;5.02;100.00;101002.84;5067347;28;20053;-40
2023/11/23 08:42:35;;;;;;;30.00;15.38;;;;;;;5.21;100.00;100998.84;5070841;28;20057;-40
2023/11/23 08:45:06;;;;;;;30.42;16.58;;;;;;;5.36;100.00;100993.13;5076876;28;20044;-41
2023/11/23 08:47:34;;;;;;;34.33;16.92;;;;;;;5.47;100.00;101000.78;5072178;28;20102;-41
2023/11/23 08:50:03;;;;;;;28.05;15.57;;;;;;;5.41;100.00;101006.25;5066844;28;20049;-41
2023/11/23 08:52:32;;;;;;;34.75;16.13;;;;;;;5.28;100.00;100996.88;5070714;28;20049;-40
2023/11/23 08:55:00;;;;;;;31.10;16.15;;;;;;;5.34;100.00;100999.38;5070170;28;20045;-42
2023/11/23 08:57:29;;;;;;;29.27;15.52;;;;;;;5.35;100.00;100998.47;5070342;28;20055;-40
2023/11/23 08:59:57;;;;;;;29.80;16.55;;;;;;;5.45;100.00;101006.13;5066513;28;20052;-41
2023/11/23 09:02:32;;;;;;;30.20;15.70;;;;;;;5.57;100.00;101012.84;5070482;28;20048;-40
2023/11/23 09:05:00;;;;;;;30.40;15.52;;;;;;;5.68;100.00;101018.69;5070730;28;20616;-40
2023/11/23 09:07:29;;;;;;;29.05;15.10;;;;;;;5.50;100.00;101015.69;5070709;28;20053;-41
2023/11/23 09:09:58;;;;;;;30.45;15.35;;;;;;;5.55;100.00;101012.03;5066916;28;20040;-40
2023/11/23 09:12:27;;;;;;;32.13;15.77;;;;;;;5.25;100.00;101005.78;5070249;28;20139;-40
2023/11/23 09:14:56;;;;;;;28.52;15.95;;;;;;;5.12;100.00;101001.72;5070214;28;20079;-42
2023/11/23 09:17:26;;;;;;;28.75;15.15;;;;;;;5.37;100.00;100991.34;5074311;28;20135;-41
2023/11/23 09:19:56;;;;;;;29.70;15.48;;;;;;;5.52;100.00;100996.25;5078944;28;20406;-41
2023/11/23 09:22:24;;;;;;;31.95;15.80;;;;;;;5.42;100.00;100981.53;5074498;28;20498;-41
2023/11/23 09:24:53;;;;;;;26.10;14.32;;;;;;;5.40;100.00;100978.94;5073916;28;20050;-41
2023/11/23 09:27:21;;;;;;;27.45;15.05;;;;;;;5.40;100.00;100972.75;5074318;28;20101;-40
2023/11/23 09:29:51;;;;;;;30.23;15.63;;;;;;;5.71;100.00;100976.28;5072201;28;20102;-40
2023/11/23 09:32:19;;;;;;;28.95;14.93;;;;;;;5.80;100.00;100976.94;5074119;28;20052;-42
2023/11/23 09:34:49;;;;;;;25.08;14.00;;;;;;;5.62;100.00;100968.59;5074096;28;20056;-41
2023/11/23 09:37:18;;;;;;;27.27;14.00;;;;;;;5.55;100.00;100974.97;5073701;28;20048;-42
2023/11/23 09:39:49;;;;;;;26.30;13.88;;;;;;;5.52;100.00;100972.41;5071601;28;20049;-40
2023/11/23 09:42:20;;;;;;;23.88;13.50;;;;;;;5.57;100.00;100970.50;5073156;28;20084;-40
2023/11/23 09:44:54;;;;;;;26.77;14.27;;;;;;;5.75;100.00;100975.28;5073317;28;20064;-41
2023/11/23 09:47:31;;;;;;;26.00;13.95;;;;;;;5.74;100.00;100962.94;5073363;28;20489;-42
2023/11/23 09:50:00;;;;;;;26.05;13.48;;;;;;;5.68;100.00;100963.13;5071424;28;20102;-42
2023/11/23 09:52:33;;;;;;;26.48;13.82;;;;;;;5.73;100.00;100979.75;5073718;28;20110;-40
2023/11/23 09:55:04;;;;;;;23.97;13.00;;;;;;;5.72;100.00;100964.78;5073560;28;20063;-41
2023/11/23 09:57:33;;;;;;;23.08;12.68;;;;;;;5.59;100.00;100954.56;5073766;28;20366;-41
2023/11/23 10:00:05;;;;;;;22.67;11.85;;;;;;;5.77;100.00;100945.25;5071621;28;20401;-41
2023/11/23 10:02:36;;;;;;;21.63;11.85;;;;;;;5.89;100.00;100939.59;5073226;28;20757;-41
2023/11/23 10:05:08;;;;;;;21.90;12.23;;;;;;;6.02;100.00;100935.69;5073429;28;20093;-42
2023/11/23 10:07:41;;;;;;;23.52;12.32;;;;;;;6.03;100.00;100940.06;5072478;28;20458;-42
2023/11/23 10:10:10;;;;;;;25.33;13.50;;;;;;;6.03;100.00;100932.13;5071487;28;20477;-40
2023/11/23 10:12:39;;;;;;;24.95;13.02;;;;;;;5.95;100.00;100928.84;5092117;28;20139;-42
2023/11/23 10:15:10;;;;;;;24.42;12.75;;;;;;;5.94;100.00;100912.09;5093122;28;20048;-40
2023/11/23 10:17:39;;;;;;;27.02;14.43;;;;;;;6.00;100.00;100917.22;5093053;28;20075;-42
2023/11/23 10:20:10;;;;;;;25.92;14.23;;;;;;;5.96;100.00;100920.84;5075330;28;20044;-40
2023/11/23 10:22:43;;;;;;;28.10;15.05;;;;;;;5.93;100.00;100920.09;5072933;28;20053;-40
2023/11/23 10:25:24;;;;;;;24.98;13.65;;;;;;;5.97;100.00;100919.94;5072566;28;20143;-42
2023/11/23 10:27:53;;;;;;;24.35;13.88;;;;;;;5.86;100.00;100918.50;5073107;28;20055;-40
2023/11/23 10:30:24;;;;;;;25.00;13.80;;;;;;;5.77;100.00;100908.19;5069709;28;20801;-42
2023/11/23 10:32:53;;;;;;;26.42;14.25;;;;;;;5.96;100.00;100901.44;5072459;28;20127;-40
2023/11/23 10:35:22;;;;;;;27.27;14.30;;;;;;;6.18;100.00;100889.28;5072707;28;20056;-42
2023/11/23 10:37:54;;;;;;;25.10;14.25;;;;;;;6.37;100.00;100888.66;5072765;28;20247;-40
2023/11/23 10:40:24;;;;;;;25.97;14.53;;;;;;;6.46;100.00;100883.06;5070485;28;20055;-41
2023/11/23 10:42:53;;;;;;;24.10;14.18;;;;;;;6.40;100.00;100888.56;5072525;28;20339;-40
2023/11/23 10:45:24;;;;;;;27.92;14.82;;;;;;;6.63;100.00;100880.72;5072622;28;20055;-43
2023/11/23 10:47:55;;;;;;;26.65;15.13;;;;;;;6.55;100.00;100864.19;5072652;28;20234;-42
2023/11/23 10:50:25;;;;;;;26.55;14.85;;;;;;;6.43;100.00;100856.66;5070952;28;20127;-41
2023/11/23 10:52:57;;;;;;;27.67;14.63;;;;;;;6.54;100.00;100852.72;5073897;28;20143;-41
2023/11/23 10:55:25;;;;;;;26.77;14.90;;;;;;;6.50;100.00;100844.94;5074152;28;20545;-42
2023/11/23 10:57:58;;;;;;;24.63;14.15;;;;;;;6.67;100.00;100855.84;5076406;28;20131;-41
2023/11/23 11:00:28;;;;;;;27.00;15.63;;;;;;;6.68;100.00;100857.56;5074930;28;20136;-41
2023/11/23 11:03:00;;;;;;;25.05;14.13;;;;;;;6.80;100.00;100841.22;5076564;28;20059;-43
2023/11/23 11:05:31;;;;;;;28.00;14.77;;;;;;;6.77;100.00;100833.41;5073676;28;20040;-41
2023/11/23 11:08:03;;;;;;;28.90;15.10;;;;;;;6.86;100.00;100829.56;5071802;28;20299;-41
2023/11/23 11:10:45;;;;;;;28.00;15.00;;;;;;;6.85;100.00;100827.78;5070328;28;20044;-41
2023/11/23 11:13:16;;;;;;;26.85;14.45;;;;;;;6.87;100.00;100825.97;5071990;28;20101;-42
2023/11/23 11:15:52;;;;;;;28.55;15.23;;;;;;;7.06;100.00;100823.53;5072056;28;20385;-41
2023/11/23 11:18:25;;;;;;;25.55;14.93;;;;;;;6.98;100.00;100815.84;5071111;28;20047;-41
2023/11/23 11:21:01;;;;;;;25.85;14.40;;;;;;;6.92;100.00;100807.22;5071558;28;20405;-42
2023/11/23 11:23:44;;;;;;;25.75;14.55;;;;;;;6.80;100.00;100798.81;5072023;28;20051;-42
2023/11/23 11:26:18;;;;;;;24.70;13.70;;;;;;;6.70;100.00;100796.53;5071709;28;20404;-41
2023/11/23 11:28:58;;;;;;;24.20;14.20;;;;;;;6.70;100.00;100802.72;5069673;28;20105;-42